Terminal Aerodrome Forecast
Issued by NWS

Home | Current Version | Previous Version | Text Only | Print | Product List | Glossary On
Versions: 1 2 3 4 5 6 7 8 9 10 11 12
439
FTUS45 KTFX 241724
TAFBZN
TAF
KBZN 241724Z 2418/2518 28020G30KT P6SM SCT090 SCT200
     FM250200 29012KT P6SM FEW090 SCT200
     FM250600 24007KT P6SM SCT050 BKN080
     FM251000 23006KT P6SM VCSH SCT025 BKN050 PROB30 2511/2516 3SM
      -SHRASN BR BKN025=

USA.gov is the U.S. government's official web portal to all federal, state and local government web resources and services.